Logan, Minnesota
Current Conditions -  °F | °C
As of 10:14 AM on Monday 22 Dec 2014 (Local Time) from KAIT Reporting Station
Unknown Precip Unknown Precip  
Wind Chill: 32°   Ceiling: 400
Heat Index: 37°   Visibility: 2.5mi
Dew Point: 34°   Wind: 7mph
Humidity: 87%   Direction: 130°SE
Pressure: 29.62"   Gusts: NA
Location:  46.7281°N, 93.6101°W
Report Text: KAIT 221614Z AUTO 13006KT 2 1/2SM UP OVC004 03/01 A2962 RMK AO2
Loading
Personal Weather Stations






























Interactive Weather Map New forecast layout! Learn more

10-Day Weather Forecast

Advertisements
Track Severe Weather on mobile